Terminal Aerodrome Forecast
Issued by NWS Twin Cities, MN

Home | Current Version | Previous Version | Text Only | Print | Product List | Glossary On
Versions: 1 2 3 4 5 6 7 8 9 10 11 12 13 14 15 16 17 18 19 20 21 22 23 24 25 26
987
FTUS43 KMPX 291720
TAFMSP
TAF
KMSP 291720Z 2918/3024 13008KT P6SM BKN090 OVC150
     FM292300 10009KT P6SM -RA SCT025 OVC040
      TEMPO 3002/3006 6SM -RA BR BKN025 OVC035
     FM301500 06014G22KT P6SM BKN015 OVC035=

USA.gov is the U.S. government's official web portal to all federal, state and local government web resources and services.